createdAt,value
2023-09-06T00:00:21.879Z,257
2023-09-06T00:00:53.628Z,273
2023-09-06T00:01:16.819Z,276
2023-09-06T00:01:39.551Z,298
2023-09-06T00:02:14.418Z,310
2023-09-06T00:02:46.441Z,320
2023-09-06T00:03:19.199Z,333
2023-09-06T00:03:50.486Z,347
2023-09-06T00:04:23.162Z,359
2023-09-06T00:04:54.278Z,359
2023-09-06T00:05:16.230Z,359
2023-09-06T00:05:39.250Z,356
2023-09-06T00:06:14.103Z,342
2023-09-06T00:06:46.192Z,349
2023-09-06T00:07:17.880Z,349
2023-09-06T00:07:49.659Z,337
2023-09-06T00:08:22.336Z,281
2023-09-06T00:08:54.979Z,330
2023-09-06T00:09:16.438Z,318
2023-09-06T00:09:39.191Z,304
2023-09-06T00:10:13.804Z,305
2023-09-06T00:10:45.564Z,331
2023-09-06T00:11:17.571Z,349
2023-09-06T00:11:49.348Z,357
2023-09-06T00:12:21.844Z,357
2023-09-06T00:12:54.533Z,359
2023-09-06T00:13:17.459Z,359
2023-09-06T00:13:40.442Z,358
2023-09-06T00:14:13.630Z,358
2023-09-06T00:14:45.577Z,355
2023-09-06T00:15:17.725Z,355
2023-09-06T00:15:50.014Z,2
2023-09-06T00:16:21.776Z,6
2023-09-06T00:16:54.129Z,7
2023-09-06T00:17:16.475Z,7
2023-09-06T00:17:38.887Z,7
2023-09-06T00:18:13.844Z,7
2023-09-06T00:18:45.579Z,7
2023-09-06T00:19:17.837Z,7
2023-09-06T00:19:49.503Z,7
2023-09-06T00:20:21.959Z,7
2023-09-06T00:20:53.416Z,7
2023-09-06T00:21:16.961Z,7
2023-09-06T00:21:39.124Z,7
2023-09-06T00:22:14.974Z,7
2023-09-06T00:22:45.561Z,9
2023-09-06T00:23:18.415Z,9
2023-09-06T00:23:49.979Z,10
2023-09-06T00:24:21.902Z,13
2023-09-06T00:24:54.043Z,16
2023-09-06T00:25:16.523Z,16
2023-09-06T00:25:39.267Z,15
2023-09-06T00:26:13.668Z,16
2023-09-06T00:26:45.353Z,21
2023-09-06T00:27:19.371Z,21
2023-09-06T00:27:49.386Z,20
2023-09-06T00:28:23.088Z,20
2023-09-06T00:28:53.411Z,20
2023-09-06T00:29:16.204Z,20
2023-09-06T00:29:38.817Z,20
2023-09-06T00:30:13.440Z,20
2023-09-06T00:30:45.489Z,21
2023-09-06T00:31:17.412Z,21
2023-09-06T00:31:49.893Z,21
2023-09-06T00:32:21.315Z,22
2023-09-06T00:32:53.424Z,22
2023-09-06T00:33:16.345Z,22
2023-09-06T00:33:38.904Z,22
2023-09-06T00:34:14.320Z,22
2023-09-06T00:34:45.828Z,20
2023-09-06T00:35:17.414Z,358
2023-09-06T00:35:49.497Z,356
2023-09-06T00:36:21.850Z,0
2023-09-06T00:36:53.756Z,0
2023-09-06T00:37:17.652Z,1
2023-09-06T00:37:38.645Z,3
2023-09-06T00:38:13.686Z,3
2023-09-06T00:38:45.920Z,4
2023-09-06T00:39:17.616Z,9
2023-09-06T00:39:49.557Z,9
2023-09-06T00:40:22.228Z,9
2023-09-06T00:40:54.170Z,9
2023-09-06T00:41:16.921Z,10
2023-09-06T00:41:39.201Z,10
2023-09-06T00:42:14.084Z,10
2023-09-06T00:42:46.149Z,10
2023-09-06T00:43:17.999Z,10
2023-09-06T00:43:49.958Z,10
2023-09-06T00:44:21.694Z,10
2023-09-06T00:44:53.642Z,10
2023-09-06T00:45:16.755Z,10
2023-09-06T00:45:40.415Z,10
2023-09-06T00:46:15.039Z,10
2023-09-06T00:46:47.198Z,10
2023-09-06T00:47:17.891Z,10
2023-09-06T00:47:50.371Z,10
2023-09-06T00:48:21.713Z,10
2023-09-06T00:48:53.577Z,10
2023-09-06T00:49:16.307Z,10
2023-09-06T00:49:38.731Z,6
2023-09-06T00:50:13.486Z,2
2023-09-06T00:50:45.746Z,350
2023-09-06T00:51:18.138Z,341
2023-09-06T00:51:49.910Z,331
2023-09-06T00:52:21.740Z,339
2023-09-06T00:52:53.450Z,335
2023-09-06T00:53:16.293Z,331
2023-09-06T00:53:38.594Z,333
2023-09-06T00:54:14.413Z,335
2023-09-06T00:54:46.237Z,345
2023-09-06T00:55:17.834Z,345
2023-09-06T00:55:49.610Z,356
2023-09-06T00:56:21.726Z,359
2023-09-06T00:56:53.392Z,5
2023-09-06T00:57:16.179Z,5
2023-09-06T00:57:38.697Z,5
2023-09-06T00:58:13.596Z,5
2023-09-06T00:58:46.030Z,4
2023-09-06T00:59:18.236Z,356
2023-09-06T00:59:49.914Z,353
2023-09-06T01:00:21.491Z,351
2023-09-06T01:00:53.468Z,269
2023-09-06T01:01:18.000Z,255
2023-09-06T01:01:40.448Z,254
2023-09-06T01:02:18.049Z,274
2023-09-06T01:02:45.882Z,237
2023-09-06T01:03:18.048Z,239
2023-09-06T01:03:50.395Z,237
2023-09-06T01:04:21.650Z,259
2023-09-06T01:04:53.511Z,261
2023-09-06T01:05:16.104Z,267
2023-09-06T01:05:38.676Z,274
2023-09-06T01:06:14.554Z,266
2023-09-06T01:06:45.769Z,237
2023-09-06T01:07:19.065Z,275
2023-09-06T01:07:49.569Z,283
2023-09-06T01:08:21.800Z,267
2023-09-06T01:08:53.481Z,257
2023-09-06T01:09:16.103Z,287
2023-09-06T01:09:38.640Z,319
2023-09-06T01:10:13.525Z,336
2023-09-06T01:10:45.365Z,290
2023-09-06T01:11:17.292Z,331
2023-09-06T01:11:49.376Z,317
2023-09-06T01:12:21.385Z,334
2023-09-06T01:12:53.478Z,338
2023-09-06T01:13:16.263Z,354
2023-09-06T01:13:38.749Z,1
2023-09-06T01:14:13.384Z,287
2023-09-06T01:14:45.271Z,349
2023-09-06T01:15:17.584Z,348
2023-09-06T01:15:51.691Z,350
2023-09-06T01:16:22.047Z,358
2023-09-06T01:16:53.914Z,359
2023-09-06T01:17:16.542Z,359
2023-09-06T01:17:38.979Z,8
2023-09-06T01:18:13.276Z,8
2023-09-06T01:18:45.362Z,8
2023-09-06T01:19:17.286Z,8
2023-09-06T01:19:49.762Z,7
2023-09-06T01:20:21.339Z,8
2023-09-06T01:20:53.737Z,8
2023-09-06T01:21:16.356Z,7
2023-09-06T01:21:38.677Z,339
2023-09-06T01:22:13.740Z,351
2023-09-06T01:22:45.340Z,355
2023-09-06T01:23:17.568Z,359
2023-09-06T01:23:49.774Z,359
2023-09-06T01:24:21.889Z,359
2023-09-06T01:24:53.809Z,357
2023-09-06T01:25:16.468Z,359
2023-09-06T01:25:38.966Z,5
2023-09-06T01:26:13.364Z,8
2023-09-06T01:26:45.424Z,9
2023-09-06T01:27:17.275Z,8
2023-09-06T01:27:49.481Z,8
2023-09-06T01:28:21.457Z,8
2023-09-06T01:28:54.017Z,8
2023-09-06T01:29:16.543Z,9
2023-09-06T01:29:39.473Z,17
2023-09-06T01:30:13.612Z,17
2023-09-06T01:30:45.394Z,17
2023-09-06T01:31:17.397Z,17
2023-09-06T01:31:49.322Z,21
2023-09-06T01:32:21.559Z,23
2023-09-06T01:32:53.237Z,23
2023-09-06T01:33:15.973Z,23
2023-09-06T01:33:38.381Z,23
2023-09-06T01:34:13.501Z,23
2023-09-06T01:34:45.455Z,23
2023-09-06T01:35:18.348Z,23
2023-09-06T01:35:49.438Z,23
2023-09-06T01:36:21.602Z,23
2023-09-06T01:36:54.150Z,22
2023-09-06T01:37:16.985Z,20
2023-09-06T01:37:39.746Z,20
2023-09-06T01:38:13.444Z,20
2023-09-06T01:38:45.373Z,20
2023-09-06T01:39:17.407Z,19
2023-09-06T01:39:49.539Z,20
2023-09-06T01:40:21.653Z,339
2023-09-06T01:40:53.343Z,292
2023-09-06T01:41:16.257Z,311
2023-09-06T01:41:38.654Z,282
2023-09-06T01:42:13.251Z,269
2023-09-06T01:42:45.411Z,281
2023-09-06T01:43:17.379Z,275
2023-09-06T01:43:49.476Z,297
2023-09-06T01:44:21.371Z,295
2023-09-06T01:44:54.088Z,300
2023-09-06T01:45:16.760Z,281
2023-09-06T01:45:39.781Z,267
2023-09-06T01:46:14.072Z,253
2023-09-06T01:46:45.652Z,330
2023-09-06T01:47:18.784Z,355
2023-09-06T01:47:49.393Z,357
2023-09-06T01:48:21.416Z,359
2023-09-06T01:48:53.401Z,1
2023-09-06T01:49:16.612Z,4
2023-09-06T01:49:38.962Z,4
2023-09-06T01:50:13.722Z,4
2023-09-06T01:50:47.660Z,4
2023-09-06T01:51:17.939Z,5
2023-09-06T01:51:50.514Z,12
2023-09-06T01:52:21.792Z,23
2023-09-06T01:52:53.713Z,23
2023-09-06T01:53:16.455Z,24
2023-09-06T01:53:40.445Z,24
2023-09-06T01:54:13.719Z,24
2023-09-06T01:54:45.876Z,24
2023-09-06T01:55:18.051Z,26
2023-09-06T01:55:49.743Z,27
2023-09-06T01:56:22.551Z,27
2023-09-06T01:56:54.473Z,26
2023-09-06T01:57:17.327Z,26
2023-09-06T01:57:39.493Z,349
2023-09-06T01:58:13.636Z,296
2023-09-06T01:58:46.341Z,270
2023-09-06T01:59:17.324Z,236
2023-09-06T01:59:49.545Z,246
2023-09-06T02:00:21.532Z,261
2023-09-06T02:00:53.968Z,275
2023-09-06T02:01:16.792Z,275
2023-09-06T02:01:39.058Z,277
2023-09-06T02:02:13.746Z,285
2023-09-06T02:02:46.400Z,303
2023-09-06T02:03:18.395Z,343
2023-09-06T02:03:51.935Z,355
2023-09-06T02:04:25.023Z,356
2023-09-06T02:04:47.678Z,356
2023-09-06T02:05:22.057Z,356
2023-09-06T02:05:57.597Z,356
2023-09-06T02:06:20.349Z,356
2023-09-06T02:06:42.716Z,357
2023-09-06T02:07:17.250Z,16
2023-09-06T02:07:49.441Z,16
2023-09-06T02:08:21.166Z,330
2023-09-06T02:08:53.313Z,338
2023-09-06T02:09:16.153Z,339
2023-09-06T02:09:38.450Z,356
2023-09-06T02:10:13.438Z,355
2023-09-06T02:10:45.427Z,356
2023-09-06T02:11:17.213Z,356
2023-09-06T02:11:49.285Z,356
2023-09-06T02:12:21.308Z,356
2023-09-06T02:12:53.245Z,356
2023-09-06T02:13:16.163Z,356
2023-09-06T02:13:38.433Z,356
2023-09-06T02:14:13.324Z,356
2023-09-06T02:14:46.076Z,357
2023-09-06T02:15:17.450Z,357
2023-09-06T02:15:49.618Z,5
2023-09-06T02:16:15.925Z,9
2023-09-06T02:16:50.595Z,10
2023-09-06T02:17:22.030Z,10
2023-09-06T02:17:57.441Z,12
2023-09-06T02:18:19.979Z,12
2023-09-06T02:18:42.505Z,12
2023-09-06T02:19:17.353Z,342
2023-09-06T02:19:49.492Z,306
2023-09-06T02:20:21.650Z,310
2023-09-06T02:20:53.400Z,318
2023-09-06T02:21:16.092Z,322
2023-09-06T02:21:38.561Z,342
2023-09-06T02:22:13.464Z,355
2023-09-06T02:22:45.289Z,356
2023-09-06T02:23:17.398Z,356
2023-09-06T02:23:50.356Z,356
2023-09-06T02:24:22.020Z,356
2023-09-06T02:24:53.618Z,356
2023-09-06T02:25:16.248Z,356
2023-09-06T02:25:38.494Z,334
2023-09-06T02:26:13.355Z,324
2023-09-06T02:26:45.252Z,351
2023-09-06T02:27:17.309Z,356
2023-09-06T02:27:49.528Z,349
2023-09-06T02:28:21.211Z,348
2023-09-06T02:28:54.614Z,318
2023-09-06T02:29:17.090Z,343
2023-09-06T02:29:39.965Z,356
2023-09-06T02:30:13.433Z,354
2023-09-06T02:30:45.289Z,356
2023-09-06T02:31:17.557Z,356
2023-09-06T02:31:49.361Z,356
2023-09-06T02:32:22.275Z,356
2023-09-06T02:32:53.442Z,356
2023-09-06T02:33:16.504Z,356
2023-09-06T02:33:38.564Z,355
2023-09-06T02:34:13.931Z,356
2023-09-06T02:34:45.376Z,356
2023-09-06T02:35:17.404Z,355
2023-09-06T02:35:49.580Z,355
2023-09-06T02:36:21.279Z,356
2023-09-06T02:36:53.483Z,356
2023-09-06T02:37:16.358Z,356
2023-09-06T02:37:38.674Z,355
2023-09-06T02:38:13.677Z,356
2023-09-06T02:38:48.296Z,355
2023-09-06T02:39:17.709Z,347
2023-09-06T02:39:49.292Z,334
2023-09-06T02:40:21.504Z,352
2023-09-06T02:40:53.594Z,356
2023-09-06T02:41:16.193Z,356
2023-09-06T02:41:38.890Z,355
2023-09-06T02:42:13.264Z,355
2023-09-06T02:42:45.792Z,273
2023-09-06T02:43:17.206Z,237
2023-09-06T02:43:49.450Z,270
2023-09-06T02:44:21.276Z,276
2023-09-06T02:44:53.935Z,286
2023-09-06T02:45:16.537Z,286
2023-09-06T02:45:39.194Z,279
2023-09-06T02:46:13.810Z,308
2023-09-06T02:46:45.300Z,300
2023-09-06T02:47:17.432Z,349
2023-09-06T02:47:50.613Z,341
2023-09-06T02:48:21.474Z,338
2023-09-06T02:48:53.227Z,354
2023-09-06T02:49:16.032Z,355
2023-09-06T02:49:39.459Z,358
2023-09-06T02:50:13.549Z,3
2023-09-06T02:50:46.348Z,7
2023-09-06T02:51:17.553Z,10
2023-09-06T02:51:50.023Z,12
2023-09-06T02:52:21.797Z,13
2023-09-06T02:52:53.589Z,13
2023-09-06T02:53:16.277Z,15
2023-09-06T02:53:38.669Z,22
2023-09-06T02:54:13.555Z,39
2023-09-06T02:54:45.362Z,43
2023-09-06T02:55:17.973Z,43
2023-09-06T02:55:50.243Z,42
2023-09-06T02:56:21.652Z,42
2023-09-06T02:56:53.418Z,42
2023-09-06T02:57:16.066Z,42
2023-09-06T02:57:39.658Z,42
2023-09-06T02:58:13.633Z,42
2023-09-06T02:58:45.789Z,42
2023-09-06T02:59:17.460Z,42
2023-09-06T02:59:49.727Z,42
2023-09-06T03:00:21.612Z,42
2023-09-06T03:00:55.017Z,42
2023-09-06T03:01:16.967Z,42
2023-09-06T03:01:42.177Z,42
2023-09-06T03:02:14.019Z,42
2023-09-06T03:02:45.706Z,42
2023-09-06T03:03:19.494Z,42
2023-09-06T03:03:53.423Z,42
2023-09-06T03:04:15.673Z,42
2023-09-06T03:04:50.000Z,42
2023-09-06T03:05:21.967Z,42
2023-09-06T03:05:57.375Z,42
2023-09-06T03:06:20.563Z,42
2023-09-06T03:06:44.801Z,42
2023-09-06T03:07:17.250Z,42
2023-09-06T03:07:49.417Z,41
2023-09-06T03:08:21.618Z,42
2023-09-06T03:08:53.146Z,42
2023-09-06T03:09:16.020Z,42
2023-09-06T03:09:38.363Z,42
2023-09-06T03:10:13.355Z,42
2023-09-06T03:10:45.252Z,42
2023-09-06T03:11:17.163Z,42
2023-09-06T03:11:49.166Z,41
2023-09-06T03:12:21.124Z,41
2023-09-06T03:12:53.323Z,41
2023-09-06T03:13:16.087Z,41
2023-09-06T03:13:38.342Z,41
2023-09-06T03:14:13.152Z,42
2023-09-06T03:14:45.276Z,47
2023-09-06T03:15:17.212Z,47
2023-09-06T03:15:50.664Z,47
2023-09-06T03:16:21.468Z,47
2023-09-06T03:16:53.324Z,47
2023-09-06T03:17:16.061Z,47
2023-09-06T03:17:38.459Z,47
2023-09-06T03:18:13.467Z,46
2023-09-06T03:18:45.231Z,46
2023-09-06T03:19:17.316Z,45
2023-09-06T03:19:49.166Z,45
2023-09-06T03:20:21.268Z,45
2023-09-06T03:20:53.252Z,46
2023-09-06T03:21:15.824Z,46
2023-09-06T03:21:38.224Z,46
2023-09-06T03:22:13.240Z,46
2023-09-06T03:22:45.254Z,46
2023-09-06T03:23:17.363Z,46
2023-09-06T03:23:49.235Z,45
2023-09-06T03:24:21.736Z,45
2023-09-06T03:24:53.165Z,46
2023-09-06T03:25:16.167Z,46
2023-09-06T03:25:38.494Z,46
2023-09-06T03:26:13.480Z,46
2023-09-06T03:26:45.880Z,46
2023-09-06T03:27:17.124Z,46
2023-09-06T03:27:49.253Z,46
2023-09-06T03:28:21.166Z,46
2023-09-06T03:28:53.491Z,45
2023-09-06T03:29:17.047Z,45
2023-09-06T03:29:39.060Z,41
2023-09-06T03:30:14.004Z,41
2023-09-06T03:30:45.137Z,40
2023-09-06T03:31:17.324Z,40
2023-09-06T03:31:49.297Z,40
2023-09-06T03:32:21.248Z,39
2023-09-06T03:32:53.210Z,36
2023-09-06T03:33:16.202Z,36
2023-09-06T03:33:38.414Z,36
2023-09-06T03:34:13.235Z,36
2023-09-06T03:34:45.138Z,36
2023-09-06T03:35:17.245Z,36
2023-09-06T03:35:49.147Z,36
2023-09-06T03:36:21.478Z,36
2023-09-06T03:36:53.225Z,36
2023-09-06T03:37:16.008Z,36
2023-09-06T03:37:38.824Z,20
2023-09-06T03:38:13.304Z,341
2023-09-06T03:38:45.109Z,357
2023-09-06T03:39:17.114Z,5
2023-09-06T03:39:49.263Z,12
2023-09-06T03:40:21.748Z,24
2023-09-06T03:40:53.146Z,24
2023-09-06T03:41:16.237Z,25
2023-09-06T03:41:38.506Z,25
2023-09-06T03:42:13.195Z,25
2023-09-06T03:42:45.331Z,42
2023-09-06T03:43:17.204Z,357
2023-09-06T03:43:49.266Z,355
2023-09-06T03:44:21.293Z,0
2023-09-06T03:44:53.358Z,0
2023-09-06T03:45:15.984Z,0
2023-09-06T03:45:39.880Z,1
2023-09-06T03:46:13.348Z,15
2023-09-06T03:46:45.589Z,26
2023-09-06T03:47:17.486Z,31
2023-09-06T03:47:49.877Z,31
2023-09-06T03:48:22.078Z,31
2023-09-06T03:48:53.223Z,342
2023-09-06T03:49:16.001Z,329
2023-09-06T03:49:38.225Z,334
2023-09-06T03:50:13.388Z,358
2023-09-06T03:50:45.207Z,7
2023-09-06T03:51:17.504Z,17
2023-09-06T03:51:49.214Z,22
2023-09-06T03:52:21.378Z,21
2023-09-06T03:52:54.645Z,22
2023-09-06T03:53:16.428Z,22
2023-09-06T03:53:38.977Z,21
2023-09-06T03:54:13.204Z,354
2023-09-06T03:54:45.235Z,336
2023-09-06T03:55:17.480Z,346
2023-09-06T03:55:49.100Z,357
2023-09-06T03:56:21.218Z,2
2023-09-06T03:56:53.401Z,8
2023-09-06T03:57:16.430Z,16
2023-09-06T03:57:39.235Z,18
2023-09-06T03:58:17.616Z,16
2023-09-06T03:58:45.186Z,17
2023-09-06T03:59:17.615Z,17
2023-09-06T03:59:49.745Z,17
2023-09-06T04:00:22.751Z,17
2023-09-06T04:00:54.739Z,17
2023-09-06T04:01:16.241Z,17
2023-09-06T04:01:40.133Z,15
2023-09-06T04:02:14.885Z,359
2023-09-06T04:02:45.310Z,336
2023-09-06T04:03:18.180Z,342
2023-09-06T04:03:49.673Z,356
2023-09-06T04:04:22.391Z,1
2023-09-06T04:04:53.719Z,1
2023-09-06T04:05:16.452Z,4
2023-09-06T04:05:38.303Z,7
2023-09-06T04:06:14.747Z,9
2023-09-06T04:06:45.702Z,17
2023-09-06T04:07:18.651Z,17
2023-09-06T04:07:49.345Z,17
2023-09-06T04:08:22.038Z,25
2023-09-06T04:08:53.294Z,25
2023-09-06T04:09:16.492Z,25
2023-09-06T04:09:38.918Z,25
2023-09-06T04:10:13.604Z,25
2023-09-06T04:10:45.621Z,25
2023-09-06T04:11:17.092Z,25
2023-09-06T04:11:49.225Z,25
2023-09-06T04:12:21.231Z,25
2023-09-06T04:12:53.093Z,25
2023-09-06T04:13:16.249Z,25
2023-09-06T04:13:38.867Z,25
2023-09-06T04:14:13.227Z,25
2023-09-06T04:14:45.365Z,25
2023-09-06T04:15:17.165Z,25
2023-09-06T04:15:50.830Z,25
2023-09-06T04:16:21.599Z,25
2023-09-06T04:16:53.199Z,25
2023-09-06T04:17:16.357Z,25
2023-09-06T04:17:38.796Z,25
2023-09-06T04:18:13.270Z,25
2023-09-06T04:18:45.254Z,25
2023-09-06T04:19:17.072Z,25
2023-09-06T04:19:50.227Z,25
2023-09-06T04:20:21.210Z,25
2023-09-06T04:20:53.197Z,25
2023-09-06T04:21:16.720Z,25
2023-09-06T04:21:39.174Z,25
2023-09-06T04:22:13.206Z,25
2023-09-06T04:22:45.163Z,25
2023-09-06T04:23:17.687Z,25
2023-09-06T04:23:49.318Z,25
2023-09-06T04:24:21.339Z,25
2023-09-06T04:24:53.282Z,10
2023-09-06T04:25:16.660Z,5
2023-09-06T04:25:38.955Z,354
2023-09-06T04:26:13.228Z,353
2023-09-06T04:26:45.298Z,355
2023-09-06T04:27:17.248Z,357
2023-09-06T04:27:49.052Z,0
2023-09-06T04:28:21.191Z,1
2023-09-06T04:28:53.476Z,1
2023-09-06T04:29:16.772Z,0
2023-09-06T04:29:38.528Z,0
2023-09-06T04:30:13.332Z,359
2023-09-06T04:30:45.224Z,0
2023-09-06T04:31:17.111Z,0
2023-09-06T04:31:49.214Z,0
2023-09-06T04:32:21.123Z,1
2023-09-06T04:32:53.245Z,1
2023-09-06T04:33:16.911Z,1
2023-09-06T04:33:38.650Z,1
2023-09-06T04:34:13.152Z,1
2023-09-06T04:34:45.108Z,1
2023-09-06T04:35:17.215Z,1
2023-09-06T04:35:49.340Z,5
2023-09-06T04:36:21.594Z,7
2023-09-06T04:36:53.224Z,8
2023-09-06T04:37:16.002Z,8
2023-09-06T04:37:38.324Z,14
2023-09-06T04:38:13.502Z,23
2023-09-06T04:38:45.212Z,27
2023-09-06T04:39:17.079Z,27
2023-09-06T04:39:49.207Z,27
2023-09-06T04:40:21.198Z,27
2023-09-06T04:40:53.275Z,27
2023-09-06T04:41:19.017Z,27
2023-09-06T04:41:40.761Z,27
2023-09-06T04:42:13.189Z,28
2023-09-06T04:42:45.089Z,28
2023-09-06T04:43:17.244Z,28
2023-09-06T04:43:49.713Z,28
2023-09-06T04:44:21.188Z,28
2023-09-06T04:44:53.641Z,28
2023-09-06T04:45:16.433Z,28
2023-09-06T04:45:41.224Z,28
2023-09-06T04:46:15.778Z,30
2023-09-06T04:46:45.267Z,30
2023-09-06T04:47:17.618Z,30
2023-09-06T04:47:49.396Z,30
2023-09-06T04:48:21.259Z,30
2023-09-06T04:48:53.293Z,30
2023-09-06T04:49:16.403Z,30
2023-09-06T04:49:38.644Z,30
2023-09-06T04:50:13.368Z,29
2023-09-06T04:50:45.308Z,29
2023-09-06T04:51:17.166Z,29
2023-09-06T04:51:49.778Z,29
2023-09-06T04:52:26.961Z,29
2023-09-06T04:52:50.173Z,29
2023-09-06T04:53:21.931Z,29
2023-09-06T04:53:58.008Z,30
2023-09-06T04:54:20.558Z,30
2023-09-06T04:54:43.117Z,30
2023-09-06T04:55:17.657Z,30
2023-09-06T04:55:50.033Z,30
2023-09-06T04:56:21.261Z,30
2023-09-06T04:56:53.814Z,30
2023-09-06T04:57:16.264Z,30
2023-09-06T04:57:39.631Z,30
2023-09-06T04:58:16.556Z,30
2023-09-06T04:58:45.601Z,30
2023-09-06T04:59:17.943Z,30
2023-09-06T04:59:52.817Z,41
2023-09-06T05:00:15.069Z,45
2023-09-06T05:00:50.354Z,45
2023-09-06T05:01:21.907Z,45
2023-09-06T05:01:57.515Z,47
2023-09-06T05:02:20.368Z,47
2023-09-06T05:02:42.706Z,47
2023-09-06T05:03:19.506Z,47
2023-09-06T05:03:49.511Z,47
2023-09-06T05:04:21.708Z,47
2023-09-06T05:04:54.784Z,47
2023-09-06T05:05:16.040Z,47
2023-09-06T05:05:38.381Z,47
2023-09-06T05:06:13.775Z,47
2023-09-06T05:06:45.455Z,47
2023-09-06T05:07:17.264Z,47
2023-09-06T05:07:49.284Z,47
2023-09-06T05:08:21.332Z,47
2023-09-06T05:08:53.486Z,49
2023-09-06T05:09:16.846Z,52
2023-09-06T05:09:39.041Z,54
2023-09-06T05:10:13.500Z,59
2023-09-06T05:10:45.203Z,56
2023-09-06T05:11:17.240Z,56
2023-09-06T05:11:49.284Z,56
2023-09-06T05:12:21.219Z,56
2023-09-06T05:12:53.106Z,51
2023-09-06T05:13:16.353Z,49
2023-09-06T05:13:40.479Z,49
2023-09-06T05:14:13.453Z,49
2023-09-06T05:14:45.306Z,49
2023-09-06T05:15:17.291Z,49
2023-09-06T05:15:49.612Z,48
2023-09-06T05:16:22.891Z,54
2023-09-06T05:16:53.827Z,49
2023-09-06T05:17:16.327Z,49
2023-09-06T05:17:39.242Z,54
2023-09-06T05:18:13.351Z,54
2023-09-06T05:18:46.645Z,49
2023-09-06T05:19:17.484Z,51
2023-09-06T05:19:50.476Z,51
2023-09-06T05:20:21.679Z,51
2023-09-06T05:20:54.857Z,49
2023-09-06T05:21:16.461Z,49
2023-09-06T05:21:38.915Z,49
2023-09-06T05:22:13.221Z,49
2023-09-06T05:22:45.585Z,49
2023-09-06T05:23:17.146Z,49
2023-09-06T05:23:49.964Z,49
2023-09-06T05:24:22.447Z,49
2023-09-06T05:24:53.615Z,49
2023-09-06T05:25:16.429Z,51
2023-09-06T05:25:38.901Z,51
2023-09-06T05:26:13.335Z,51
2023-09-06T05:26:45.664Z,51
2023-09-06T05:27:17.496Z,51
2023-09-06T05:27:49.090Z,51
2023-09-06T05:28:21.547Z,51
2023-09-06T05:28:53.434Z,54
2023-09-06T05:29:15.997Z,49
2023-09-06T05:29:38.583Z,49
2023-09-06T05:30:14.121Z,49
2023-09-06T05:30:45.442Z,45
2023-09-06T05:31:17.561Z,47
2023-09-06T05:31:49.267Z,47
2023-09-06T05:32:21.068Z,47
2023-09-06T05:32:53.380Z,47
2023-09-06T05:33:16.022Z,47
2023-09-06T05:33:38.297Z,47
2023-09-06T05:34:13.279Z,49
2023-09-06T05:34:45.393Z,49
2023-09-06T05:35:17.282Z,51
2023-09-06T05:35:49.405Z,49
2023-09-06T05:36:21.198Z,49
2023-09-06T05:36:53.571Z,51
2023-09-06T05:37:16.197Z,51
2023-09-06T05:37:39.053Z,51
2023-09-06T05:38:13.073Z,53
2023-09-06T05:38:46.835Z,57
2023-09-06T05:39:17.904Z,53
2023-09-06T05:39:49.799Z,63
2023-09-06T05:40:21.110Z,55
2023-09-06T05:40:53.355Z,48
2023-09-06T05:41:16.207Z,53
2023-09-06T05:41:39.866Z,45
2023-09-06T05:42:13.210Z,51
2023-09-06T05:42:45.172Z,36
2023-09-06T05:43:17.207Z,41
2023-09-06T05:43:49.185Z,44
2023-09-06T05:44:22.798Z,56
2023-09-06T05:44:53.945Z,55
2023-09-06T05:45:16.905Z,45
2023-09-06T05:45:39.104Z,43
2023-09-06T05:46:31.599Z,44
2023-09-06T05:46:46.216Z,56
2023-09-06T05:47:17.160Z,52
2023-09-06T05:47:49.451Z,66
2023-09-06T05:48:21.554Z,68
2023-09-06T05:48:53.360Z,77
2023-09-06T05:49:15.989Z,66
2023-09-06T05:49:38.724Z,62
2023-09-06T05:50:13.854Z,64
2023-09-06T05:50:45.705Z,62
2023-09-06T05:51:17.602Z,64
2023-09-06T05:51:49.420Z,66
2023-09-06T05:52:21.391Z,69
2023-09-06T05:52:54.314Z,68
2023-09-06T05:53:16.501Z,62
2023-09-06T05:53:39.811Z,73
2023-09-06T05:54:13.194Z,72
2023-09-06T05:54:45.388Z,71
2023-09-06T05:55:17.304Z,73
2023-09-06T05:55:49.312Z,68
2023-09-06T05:56:21.322Z,66
2023-09-06T05:56:53.435Z,55
2023-09-06T05:57:16.093Z,52
2023-09-06T05:57:38.574Z,57
2023-09-06T05:58:13.917Z,57
2023-09-06T05:58:45.380Z,62
2023-09-06T05:59:18.682Z,66
2023-09-06T05:59:50.304Z,60
2023-09-06T06:00:21.438Z,62
2023-09-06T06:00:53.721Z,59
2023-09-06T06:01:17.324Z,55
2023-09-06T06:01:40.897Z,48
2023-09-06T06:02:13.256Z,45
2023-09-06T06:02:45.828Z,46
2023-09-06T06:03:19.547Z,33
2023-09-06T06:03:49.596Z,63
2023-09-06T06:04:23.703Z,52
2023-09-06T06:04:53.618Z,54
2023-09-06T06:05:16.499Z,54
2023-09-06T06:05:39.956Z,54
2023-09-06T06:06:13.860Z,54
2023-09-06T06:06:45.361Z,54
2023-09-06T06:07:17.609Z,51
2023-09-06T06:07:49.234Z,52
2023-09-06T06:08:22.245Z,49
2023-09-06T06:08:53.315Z,49
2023-09-06T06:09:15.918Z,49
2023-09-06T06:09:38.669Z,49
2023-09-06T06:10:13.341Z,52
2023-09-06T06:10:45.345Z,53
2023-09-06T06:11:17.172Z,53
2023-09-06T06:11:49.429Z,53
2023-09-06T06:12:21.408Z,53
2023-09-06T06:12:53.131Z,55
2023-09-06T06:13:15.722Z,56
2023-09-06T06:13:40.466Z,55
2023-09-06T06:14:13.823Z,64
2023-09-06T06:14:45.680Z,76
2023-09-06T06:15:17.301Z,78
2023-09-06T06:15:50.324Z,67
2023-09-06T06:16:21.410Z,74
2023-09-06T06:16:53.223Z,58
2023-09-06T06:17:15.850Z,78
2023-09-06T06:17:38.451Z,57
2023-09-06T06:18:13.345Z,37
2023-09-06T06:18:45.124Z,45
2023-09-06T06:19:17.153Z,45
2023-09-06T06:19:49.338Z,51
2023-09-06T06:20:30.608Z,45
2023-09-06T06:20:54.334Z,47
2023-09-06T06:21:16.266Z,87
2023-09-06T06:21:39.448Z,78
2023-09-06T06:22:13.521Z,143
2023-09-06T06:22:45.179Z,101
2023-09-06T06:23:17.113Z,30
2023-09-06T06:23:49.244Z,34
2023-09-06T06:24:21.573Z,101
2023-09-06T06:24:53.259Z,31
2023-09-06T06:25:16.205Z,27
2023-09-06T06:25:39.919Z,83
2023-09-06T06:26:13.162Z,83
2023-09-06T06:26:45.247Z,84
2023-09-06T06:27:17.109Z,59
2023-09-06T06:27:49.303Z,60
2023-09-06T06:28:21.240Z,68
2023-09-06T06:28:53.742Z,67
2023-09-06T06:29:16.028Z,64
2023-09-06T06:29:38.699Z,70
2023-09-06T06:30:13.613Z,43
2023-09-06T06:30:45.065Z,49
2023-09-06T06:31:17.605Z,43
2023-09-06T06:31:49.479Z,75
2023-09-06T06:32:21.446Z,49
2023-09-06T06:32:53.069Z,47
2023-09-06T06:33:15.833Z,33
2023-09-06T06:33:38.326Z,34
2023-09-06T06:34:13.380Z,51
2023-09-06T06:34:45.628Z,59
2023-09-06T06:35:17.378Z,53
2023-09-06T06:35:49.431Z,340
2023-09-06T06:36:21.200Z,73
2023-09-06T06:36:53.225Z,75
2023-09-06T06:37:15.959Z,74
2023-09-06T06:37:38.357Z,62
2023-09-06T06:38:13.393Z,59
2023-09-06T06:38:45.154Z,62
2023-09-06T06:39:17.115Z,66
2023-09-06T06:39:49.124Z,137
2023-09-06T06:40:21.221Z,122
2023-09-06T06:40:53.484Z,86
2023-09-06T06:41:16.078Z,70
2023-09-06T06:41:38.937Z,66
2023-09-06T06:42:13.109Z,85
2023-09-06T06:42:45.203Z,75
2023-09-06T06:43:17.154Z,83
2023-09-06T06:43:49.271Z,61
2023-09-06T06:44:21.143Z,74
2023-09-06T06:44:54.011Z,59
2023-09-06T06:45:18.383Z,67
2023-09-06T06:45:39.097Z,86
2023-09-06T06:46:13.661Z,77
2023-09-06T06:46:45.732Z,42
2023-09-06T06:47:17.734Z,72
2023-09-06T06:47:49.472Z,93
2023-09-06T06:48:21.430Z,93
2023-09-06T06:48:53.093Z,66
2023-09-06T06:49:15.792Z,55
2023-09-06T06:49:38.237Z,58
2023-09-06T06:50:13.251Z,63
2023-09-06T06:50:45.118Z,52
2023-09-06T06:51:17.740Z,57
2023-09-06T06:51:49.484Z,70
2023-09-06T06:52:21.304Z,76
2023-09-06T06:52:54.800Z,137
2023-09-06T06:53:16.018Z,93
2023-09-06T06:53:38.593Z,75
2023-09-06T06:54:14.081Z,54
2023-09-06T06:54:45.111Z,64
2023-09-06T06:55:18.271Z,48
2023-09-06T06:55:49.184Z,39
2023-09-06T06:56:21.225Z,63
2023-09-06T06:56:53.556Z,77
2023-09-06T06:57:16.346Z,76
2023-09-06T06:57:38.859Z,66
2023-09-06T06:58:13.284Z,54
2023-09-06T06:58:45.245Z,48
2023-09-06T06:59:17.326Z,77
2023-09-06T06:59:49.486Z,75
2023-09-06T07:00:21.265Z,88
2023-09-06T07:00:53.566Z,66
2023-09-06T07:01:16.466Z,59
2023-09-06T07:01:38.932Z,48
2023-09-06T07:02:13.327Z,71
2023-09-06T07:02:45.948Z,86
2023-09-06T07:03:20.287Z,90
2023-09-06T07:03:51.368Z,62
2023-09-06T07:04:21.871Z,60
2023-09-06T07:04:53.865Z,93
2023-09-06T07:05:15.922Z,58